עמוד ראשי
METAR-TAF:

METAR-TAF

שדות תעופה :

Tumbes, פרו

קו רוחב: 03-33S, קו אורך: 080-24W, גובה: 25מטר

תצפית מזג אוויר נוכחית

הדו"ח נערך לפני 9 שעות ו 40דקות, בשעה 03:00 UTC
רוח רגועה
טמפרטורת 27 צלסיוס
לחות 79%
לחץ 1010 hPa
ראות 10 קילומטר או יותר
עננים בינוניים בגובה 2000רגל

METAR: SPME 120300Z 00000KT 9999 BKN020 27/23 Q1010 RMK BIRD HAZARD RWY 32/14 PP000

זמן: 07:40 (12:40 UTC)

תחזית

הדו"ח נערך לפני 1 שעות ו 35דקות, בשעה 11:05 UTC
תחזית בתוקף מ 12 ב 12 UTC עד 13 ב 12 UTC
רוח 10קשר מכיוון צפון
ראות 10 קילומטר או יותר
עננים בינוניים בגובה 2000רגל
יעשה מ
12 ב 20 UTC עד 12 ב 22 UTC
רוח 6קשר מכיוון מערב
יעשה מ
13 ב 10 UTC עד 13 ב 12 UTC
רוח 10קשר מכיוון צפון

TAF: SPME 121105Z 1212/1312 35010KT 9999 BKN020 TX32/1219Z TN23/1311Z BECMG 1220/1222 27006KT BECMG 1310/1312 35010KT

תצפיות ותחזיות מזג אוויר לגבי יותר מ- 4,000 שדות תעופה ברחבי העולם. דוחות METAR ו- TAF.

התחנות הזמינות מסומנות בנקודות צהובות ואדומות על גבי המפה.

העבר את העכבר לנקודה הצבעונית על מנת לראות את שם התחנה.

לאחר מכן, לחץ כדי לראות את תוכן ואת תחזיות מזג האוויר.

כדי לשנות את המפה: לחץ על הכפתורים הירוקים עם הפלוס השחור כדי להתקרב; על הכפתור הירוק עם המקף כדי להתרחק; או בחיצים הירוקים למפות סמוכות.


METAR-TAF: